sensor_id;sensor_type;location;lat;lon;timestamp;P1;durP1;ratioP1;P2;durP2;ratioP2
10154;SDS011;5118;48.570;7.916;2023-03-25T00:02:27;3.33;;;1.40;;
10154;SDS011;5118;48.570;7.916;2023-03-25T00:04:56;2.43;;;1.20;;
10154;SDS011;5118;48.570;7.916;2023-03-25T00:07:29;2.07;;;1.10;;
10154;SDS011;5118;48.570;7.916;2023-03-25T00:09:57;2.83;;;1.10;;
10154;SDS011;5118;48.570;7.916;2023-03-25T00:12:25;4.73;;;1.50;;
10154;SDS011;5118;48.570;7.916;2023-03-25T00:14:54;2.97;;;1.50;;
10154;SDS011;5118;48.570;7.916;2023-03-25T00:17:24;3.40;;;1.60;;
10154;SDS011;5118;48.570;7.916;2023-03-25T00:19:56;3.10;;;1.17;;
10154;SDS011;5118;48.570;7.916;2023-03-25T00:22:26;4.60;;;1.40;;
10154;SDS011;5118;48.570;7.916;2023-03-25T00:24:54;4.07;;;1.40;;
10154;SDS011;5118;48.570;7.916;2023-03-25T00:27:22;2.93;;;1.40;;
10154;SDS011;5118;48.570;7.916;2023-03-25T00:29:51;1.93;;;1.00;;
10154;SDS011;5118;48.570;7.916;2023-03-25T00:32:19;1.10;;;1.00;;
10154;SDS011;5118;48.570;7.916;2023-03-25T00:34:48;2.43;;;0.90;;
10154;SDS011;5118;48.570;7.916;2023-03-25T00:37:21;3.93;;;1.03;;
10154;SDS011;5118;48.570;7.916;2023-03-25T00:39:50;2.20;;;1.10;;
10154;SDS011;5118;48.570;7.916;2023-03-25T00:42:19;2.33;;;0.73;;
10154;SDS011;5118;48.570;7.916;2023-03-25T00:44:52;0.87;;;0.87;;
10154;SDS011;5118;48.570;7.916;2023-03-25T00:47:21;1.80;;;0.90;;
10154;SDS011;5118;48.570;7.916;2023-03-25T00:49:50;2.00;;;0.87;;
10154;SDS011;5118;48.570;7.916;2023-03-25T00:52:20;2.30;;;0.90;;
10154;SDS011;5118;48.570;7.916;2023-03-25T00:54:48;3.43;;;1.10;;
10154;SDS011;5118;48.570;7.916;2023-03-25T00:57:19;3.87;;;1.30;;
10154;SDS011;5118;48.570;7.916;2023-03-25T00:59:48;2.03;;;1.10;;
10154;SDS011;5118;48.570;7.916;2023-03-25T01:02:17;2.97;;;1.23;;
10154;SDS011;5118;48.570;7.916;2023-03-25T01:04:47;3.23;;;1.10;;
10154;SDS011;5118;48.570;7.916;2023-03-25T01:07:16;2.03;;;1.13;;
10154;SDS011;5118;48.570;7.916;2023-03-25T01:09:46;3.23;;;0.90;;
10154;SDS011;5118;48.570;7.916;2023-03-25T01:12:15;2.50;;;1.13;;
10154;SDS011;5118;48.570;7.916;2023-03-25T01:14:45;2.57;;;1.17;;
10154;SDS011;5118;48.570;7.916;2023-03-25T01:17:13;6.33;;;1.60;;
10154;SDS011;5118;48.570;7.916;2023-03-25T01:19:42;4.07;;;1.50;;
10154;SDS011;5118;48.570;7.916;2023-03-25T01:22:10;3.10;;;1.60;;
10154;SDS011;5118;48.570;7.916;2023-03-25T01:24:40;2.67;;;1.43;;
10154;SDS011;5118;48.570;7.916;2023-03-25T01:27:10;4.63;;;1.80;;
10154;SDS011;5118;48.570;7.916;2023-03-25T01:29:38;2.93;;;1.57;;
10154;SDS011;5118;48.570;7.916;2023-03-25T01:32:06;5.73;;;1.70;;
10154;SDS011;5118;48.570;7.916;2023-03-25T01:34:35;6.20;;;1.43;;
10154;SDS011;5118;48.570;7.916;2023-03-25T01:37:04;2.73;;;1.30;;
10154;SDS011;5118;48.570;7.916;2023-03-25T01:39:33;8.10;;;1.43;;
10154;SDS011;5118;48.570;7.916;2023-03-25T01:42:02;4.53;;;1.30;;
10154;SDS011;5118;48.570;7.916;2023-03-25T01:47:41;3.50;;;1.10;;
10154;SDS011;5118;48.570;7.916;2023-03-25T01:50:14;1.73;;;0.93;;
10154;SDS011;5118;48.570;7.916;2023-03-25T01:52:44;1.70;;;1.20;;
10154;SDS011;5118;48.570;7.916;2023-03-25T01:55:17;2.30;;;0.87;;
10154;SDS011;5118;48.570;7.916;2023-03-25T01:57:48;1.30;;;1.00;;
10154;SDS011;5118;48.570;7.916;2023-03-25T02:00:21;1.57;;;0.90;;
10154;SDS011;5118;48.570;7.916;2023-03-25T02:02:52;1.73;;;1.03;;
10154;SDS011;5118;48.570;7.916;2023-03-25T02:05:27;1.13;;;0.90;;
10154;SDS011;5118;48.570;7.916;2023-03-25T02:08:03;1.17;;;0.90;;
10154;SDS011;5118;48.570;7.916;2023-03-25T02:10:35;0.80;;;0.80;;
10154;SDS011;5118;48.570;7.916;2023-03-25T02:13:04;1.07;;;0.70;;
10154;SDS011;5118;48.570;7.916;2023-03-25T02:15:38;2.07;;;1.00;;
10154;SDS011;5118;48.570;7.916;2023-03-25T02:18:16;1.30;;;0.80;;
10154;SDS011;5118;48.570;7.916;2023-03-25T02:24:08;2.13;;;0.90;;
10154;SDS011;5118;48.570;7.916;2023-03-25T02:30:07;1.87;;;0.80;;
10154;SDS011;5118;48.570;7.916;2023-03-25T02:33:16;2.40;;;0.70;;
10154;SDS011;5118;48.570;7.916;2023-03-25T02:36:22;3.37;;;0.70;;
10154;SDS011;5118;48.570;7.916;2023-03-25T02:39:10;2.37;;;1.00;;
10154;SDS011;5118;48.570;7.916;2023-03-25T02:41:45;2.93;;;0.93;;
10154;SDS011;5118;48.570;7.916;2023-03-25T02:44:23;4.07;;;1.10;;
10154;SDS011;5118;48.570;7.916;2023-03-25T02:46:57;2.17;;;0.80;;
10154;SDS011;5118;48.570;7.916;2023-03-25T02:49:29;1.87;;;0.97;;
10154;SDS011;5118;48.570;7.916;2023-03-25T02:52:04;3.17;;;0.90;;
10154;SDS011;5118;48.570;7.916;2023-03-25T02:54:40;2.03;;;1.00;;
10154;SDS011;5118;48.570;7.916;2023-03-25T02:57:12;2.20;;;0.90;;
10154;SDS011;5118;48.570;7.916;2023-03-25T02:59:44;1.47;;;0.80;;
10154;SDS011;5118;48.570;7.916;2023-03-25T03:02:14;2.50;;;1.00;;
10154;SDS011;5118;48.570;7.916;2023-03-25T03:04:45;3.70;;;1.10;;
10154;SDS011;5118;48.570;7.916;2023-03-25T03:07:17;1.93;;;1.00;;
10154;SDS011;5118;48.570;7.916;2023-03-25T03:09:54;3.53;;;1.27;;
10154;SDS011;5118;48.570;7.916;2023-03-25T03:12:31;3.23;;;1.17;;
10154;SDS011;5118;48.570;7.916;2023-03-25T03:15:16;1.53;;;1.10;;
10154;SDS011;5118;48.570;7.916;2023-03-25T03:17:53;2.43;;;1.03;;
10154;SDS011;5118;48.570;7.916;2023-03-25T03:20:34;3.40;;;1.10;;
10154;SDS011;5118;48.570;7.916;2023-03-25T03:23:08;1.60;;;1.00;;
10154;SDS011;5118;48.570;7.916;2023-03-25T03:25:45;3.07;;;1.27;;
10154;SDS011;5118;48.570;7.916;2023-03-25T03:28:19;1.77;;;1.07;;
10154;SDS011;5118;48.570;7.916;2023-03-25T03:30:56;2.83;;;1.30;;
10154;SDS011;5118;48.570;7.916;2023-03-25T03:33:29;3.87;;;1.10;;
10154;SDS011;5118;48.570;7.916;2023-03-25T03:36:00;3.17;;;1.30;;
10154;SDS011;5118;48.570;7.916;2023-03-25T03:38:33;1.47;;;1.03;;
10154;SDS011;5118;48.570;7.916;2023-03-25T03:41:06;3.47;;;1.20;;
10154;SDS011;5118;48.570;7.916;2023-03-25T03:43:39;2.43;;;1.20;;
10154;SDS011;5118;48.570;7.916;2023-03-25T03:46:10;3.20;;;1.30;;
10154;SDS011;5118;48.570;7.916;2023-03-25T03:48:43;2.83;;;1.10;;
10154;SDS011;5118;48.570;7.916;2023-03-25T03:51:16;2.47;;;1.37;;
10154;SDS011;5118;48.570;7.916;2023-03-25T03:53:48;3.57;;;1.17;;
10154;SDS011;5118;48.570;7.916;2023-03-25T03:56:25;2.47;;;0.93;;
10154;SDS011;5118;48.570;7.916;2023-03-25T03:59:03;4.20;;;1.33;;
10154;SDS011;5118;48.570;7.916;2023-03-25T04:01:40;3.60;;;1.30;;
10154;SDS011;5118;48.570;7.916;2023-03-25T04:04:12;1.73;;;0.90;;
10154;SDS011;5118;48.570;7.916;2023-03-25T04:06:46;4.47;;;1.80;;
10154;SDS011;5118;48.570;7.916;2023-03-25T04:09:23;4.97;;;1.40;;
10154;SDS011;5118;48.570;7.916;2023-03-25T04:12:02;4.30;;;1.60;;
10154;SDS011;5118;48.570;7.916;2023-03-25T04:14:35;3.57;;;1.50;;
10154;SDS011;5118;48.570;7.916;2023-03-25T04:17:04;5.17;;;1.50;;
10154;SDS011;5118;48.570;7.916;2023-03-25T04:19:33;3.57;;;1.30;;
10154;SDS011;5118;48.570;7.916;2023-03-25T04:22:04;3.37;;;1.60;;
10154;SDS011;5118;48.570;7.916;2023-03-25T04:24:32;6.00;;;1.60;;
10154;SDS011;5118;48.570;7.916;2023-03-25T04:27:04;3.57;;;1.60;;
10154;SDS011;5118;48.570;7.916;2023-03-25T04:29:35;4.33;;;1.73;;
10154;SDS011;5118;48.570;7.916;2023-03-25T04:32:05;4.27;;;2.30;;
10154;SDS011;5118;48.570;7.916;2023-03-25T04:34:35;3.43;;;1.63;;
10154;SDS011;5118;48.570;7.916;2023-03-25T04:37:03;6.03;;;1.80;;
10154;SDS011;5118;48.570;7.916;2023-03-25T04:39:32;3.73;;;1.80;;
10154;SDS011;5118;48.570;7.916;2023-03-25T04:42:00;6.23;;;1.80;;
10154;SDS011;5118;48.570;7.916;2023-03-25T04:44:30;4.27;;;1.77;;
10154;SDS011;5118;48.570;7.916;2023-03-25T04:47:05;3.80;;;1.70;;
10154;SDS011;5118;48.570;7.916;2023-03-25T04:49:37;2.87;;;1.80;;
10154;SDS011;5118;48.570;7.916;2023-03-25T04:52:06;3.00;;;1.50;;
10154;SDS011;5118;48.570;7.916;2023-03-25T04:54:36;1.87;;;1.30;;
10154;SDS011;5118;48.570;7.916;2023-03-25T04:57:18;2.47;;;1.27;;
10154;SDS011;5118;48.570;7.916;2023-03-25T04:59:48;3.67;;;1.20;;
10154;SDS011;5118;48.570;7.916;2023-03-25T05:02:16;2.23;;;1.33;;
10154;SDS011;5118;48.570;7.916;2023-03-25T05:04:46;3.50;;;1.50;;
10154;SDS011;5118;48.570;7.916;2023-03-25T05:07:15;3.20;;;1.57;;
10154;SDS011;5118;48.570;7.916;2023-03-25T05:09:44;2.13;;;1.17;;
10154;SDS011;5118;48.570;7.916;2023-03-25T05:12:12;3.97;;;1.23;;
10154;SDS011;5118;48.570;7.916;2023-03-25T05:14:41;2.73;;;1.07;;
10154;SDS011;5118;48.570;7.916;2023-03-25T05:17:10;4.30;;;1.30;;
10154;SDS011;5118;48.570;7.916;2023-03-25T05:19:39;2.50;;;1.27;;
10154;SDS011;5118;48.570;7.916;2023-03-25T05:22:09;1.87;;;1.17;;
10154;SDS011;5118;48.570;7.916;2023-03-25T05:24:38;7.13;;;1.80;;
10154;SDS011;5118;48.570;7.916;2023-03-25T05:27:10;3.83;;;1.70;;
10154;SDS011;5118;48.570;7.916;2023-03-25T05:29:39;1.63;;;0.90;;
10154;SDS011;5118;48.570;7.916;2023-03-25T05:32:11;2.73;;;1.40;;
10154;SDS011;5118;48.570;7.916;2023-03-25T05:34:43;2.97;;;1.10;;
10154;SDS011;5118;48.570;7.916;2023-03-25T05:37:12;2.63;;;1.33;;
10154;SDS011;5118;48.570;7.916;2023-03-25T05:39:40;5.00;;;1.40;;
10154;SDS011;5118;48.570;7.916;2023-03-25T05:42:11;1.97;;;1.20;;
10154;SDS011;5118;48.570;7.916;2023-03-25T05:44:39;2.20;;;1.20;;
10154;SDS011;5118;48.570;7.916;2023-03-25T05:47:13;2.73;;;1.30;;
10154;SDS011;5118;48.570;7.916;2023-03-25T05:49:42;2.50;;;1.20;;
10154;SDS011;5118;48.570;7.916;2023-03-25T05:52:10;3.03;;;1.30;;
10154;SDS011;5118;48.570;7.916;2023-03-25T05:54:39;2.83;;;1.30;;
10154;SDS011;5118;48.570;7.916;2023-03-25T05:57:08;3.27;;;1.30;;
10154;SDS011;5118;48.570;7.916;2023-03-25T05:59:36;1.97;;;1.13;;
10154;SDS011;5118;48.570;7.916;2023-03-25T06:02:06;1.97;;;1.20;;
10154;SDS011;5118;48.570;7.916;2023-03-25T06:04:39;2.03;;;1.13;;
10154;SDS011;5118;48.570;7.916;2023-03-25T06:07:08;2.57;;;1.30;;
10154;SDS011;5118;48.570;7.916;2023-03-25T06:09:41;2.37;;;1.30;;
10154;SDS011;5118;48.570;7.916;2023-03-25T06:12:12;2.80;;;1.60;;
10154;SDS011;5118;48.570;7.916;2023-03-25T06:14:40;1.37;;;1.20;;
10154;SDS011;5118;48.570;7.916;2023-03-25T06:17:13;4.13;;;1.30;;
10154;SDS011;5118;48.570;7.916;2023-03-25T06:19:45;4.20;;;3.00;;
10154;SDS011;5118;48.570;7.916;2023-03-25T06:22:14;3.17;;;1.77;;
10154;SDS011;5118;48.570;7.916;2023-03-25T06:24:42;3.03;;;1.90;;
10154;SDS011;5118;48.570;7.916;2023-03-25T06:27:11;1.87;;;1.67;;
10154;SDS011;5118;48.570;7.916;2023-03-25T06:29:42;2.80;;;1.27;;
10154;SDS011;5118;48.570;7.916;2023-03-25T06:32:12;1.37;;;1.20;;
10154;SDS011;5118;48.570;7.916;2023-03-25T06:34:41;1.73;;;1.20;;
10154;SDS011;5118;48.570;7.916;2023-03-25T06:37:11;3.47;;;1.10;;
10154;SDS011;5118;48.570;7.916;2023-03-25T06:39:39;1.90;;;1.00;;
10154;SDS011;5118;48.570;7.916;2023-03-25T06:42:16;2.77;;;1.30;;
10154;SDS011;5118;48.570;7.916;2023-03-25T06:45:14;2.77;;;1.60;;
10154;SDS011;5118;48.570;7.916;2023-03-25T06:47:54;2.20;;;1.60;;
10154;SDS011;5118;48.570;7.916;2023-03-25T06:50:23;3.10;;;1.40;;
10154;SDS011;5118;48.570;7.916;2023-03-25T06:52:53;2.27;;;1.20;;
10154;SDS011;5118;48.570;7.916;2023-03-25T06:55:22;1.03;;;0.93;;
10154;SDS011;5118;48.570;7.916;2023-03-25T06:57:53;1.10;;;0.90;;
10154;SDS011;5118;48.570;7.916;2023-03-25T07:00:21;1.27;;;1.00;;
10154;SDS011;5118;48.570;7.916;2023-03-25T07:02:52;2.63;;;1.30;;
10154;SDS011;5118;48.570;7.916;2023-03-25T07:05:24;1.63;;;1.20;;
10154;SDS011;5118;48.570;7.916;2023-03-25T07:07:54;1.63;;;0.93;;
10154;SDS011;5118;48.570;7.916;2023-03-25T07:10:22;1.77;;;0.90;;
10154;SDS011;5118;48.570;7.916;2023-03-25T07:12:51;1.77;;;1.00;;
10154;SDS011;5118;48.570;7.916;2023-03-25T07:15:19;1.37;;;0.90;;
10154;SDS011;5118;48.570;7.916;2023-03-25T07:17:47;1.17;;;0.90;;
10154;SDS011;5118;48.570;7.916;2023-03-25T07:20:16;2.93;;;1.10;;
10154;SDS011;5118;48.570;7.916;2023-03-25T07:22:44;2.70;;;1.40;;
10154;SDS011;5118;48.570;7.916;2023-03-25T07:25:14;3.37;;;1.40;;
10154;SDS011;5118;48.570;7.916;2023-03-25T07:27:42;2.63;;;1.03;;
10154;SDS011;5118;48.570;7.916;2023-03-25T07:30:15;3.87;;;1.70;;
10154;SDS011;5118;48.570;7.916;2023-03-25T07:32:44;2.17;;;1.33;;
10154;SDS011;5118;48.570;7.916;2023-03-25T07:35:12;1.30;;;1.13;;
10154;SDS011;5118;48.570;7.916;2023-03-25T07:37:41;1.67;;;1.40;;
10154;SDS011;5118;48.570;7.916;2023-03-25T07:40:10;3.90;;;1.50;;
10154;SDS011;5118;48.570;7.916;2023-03-25T07:42:42;2.80;;;1.60;;
10154;SDS011;5118;48.570;7.916;2023-03-25T07:45:19;5.10;;;2.50;;
10154;SDS011;5118;48.570;7.916;2023-03-25T07:47:50;2.87;;;1.93;;
10154;SDS011;5118;48.570;7.916;2023-03-25T07:50:19;2.00;;;1.50;;
10154;SDS011;5118;48.570;7.916;2023-03-25T07:52:51;4.03;;;2.57;;
10154;SDS011;5118;48.570;7.916;2023-03-25T07:55:20;4.83;;;1.87;;
10154;SDS011;5118;48.570;7.916;2023-03-25T07:57:49;6.73;;;2.20;;
10154;SDS011;5118;48.570;7.916;2023-03-25T08:00:18;5.17;;;2.43;;
10154;SDS011;5118;48.570;7.916;2023-03-25T08:02:47;4.87;;;2.20;;
10154;SDS011;5118;48.570;7.916;2023-03-25T08:05:17;3.67;;;2.57;;
10154;SDS011;5118;48.570;7.916;2023-03-25T08:07:47;4.30;;;3.00;;
10154;SDS011;5118;48.570;7.916;2023-03-25T08:10:16;4.37;;;2.80;;
10154;SDS011;5118;48.570;7.916;2023-03-25T08:12:45;5.40;;;2.80;;
10154;SDS011;5118;48.570;7.916;2023-03-25T08:15:15;3.70;;;2.00;;
10154;SDS011;5118;48.570;7.916;2023-03-25T08:17:44;6.13;;;2.10;;
10154;SDS011;5118;48.570;7.916;2023-03-25T08:20:13;4.10;;;2.40;;
10154;SDS011;5118;48.570;7.916;2023-03-25T08:22:42;3.10;;;1.80;;
10154;SDS011;5118;48.570;7.916;2023-03-25T08:25:11;5.57;;;2.20;;
10154;SDS011;5118;48.570;7.916;2023-03-25T08:27:40;3.63;;;2.07;;
10154;SDS011;5118;48.570;7.916;2023-03-25T08:30:09;3.33;;;1.90;;
10154;SDS011;5118;48.570;7.916;2023-03-25T08:32:39;4.30;;;1.80;;
10154;SDS011;5118;48.570;7.916;2023-03-25T08:35:12;3.70;;;1.60;;
10154;SDS011;5118;48.570;7.916;2023-03-25T08:37:40;3.20;;;1.70;;
10154;SDS011;5118;48.570;7.916;2023-03-25T08:40:08;3.77;;;1.70;;
10154;SDS011;5118;48.570;7.916;2023-03-25T08:42:37;3.73;;;1.70;;
10154;SDS011;5118;48.570;7.916;2023-03-25T08:45:07;3.20;;;1.50;;
10154;SDS011;5118;48.570;7.916;2023-03-25T08:47:36;3.07;;;1.30;;
10154;SDS011;5118;48.570;7.916;2023-03-25T08:50:07;5.37;;;1.60;;
10154;SDS011;5118;48.570;7.916;2023-03-25T08:52:37;2.80;;;1.40;;
10154;SDS011;5118;48.570;7.916;2023-03-25T08:55:05;2.57;;;1.50;;
10154;SDS011;5118;48.570;7.916;2023-03-25T08:57:37;3.73;;;1.50;;
10154;SDS011;5118;48.570;7.916;2023-03-25T09:00:08;4.03;;;1.80;;
10154;SDS011;5118;48.570;7.916;2023-03-25T09:02:40;1.93;;;1.37;;
10154;SDS011;5118;48.570;7.916;2023-03-25T09:05:11;3.60;;;1.70;;
10154;SDS011;5118;48.570;7.916;2023-03-25T09:07:41;2.20;;;1.47;;
10154;SDS011;5118;48.570;7.916;2023-03-25T09:10:10;2.00;;;1.30;;
10154;SDS011;5118;48.570;7.916;2023-03-25T09:12:39;2.87;;;1.40;;
10154;SDS011;5118;48.570;7.916;2023-03-25T09:15:09;2.43;;;1.20;;
10154;SDS011;5118;48.570;7.916;2023-03-25T09:17:38;3.93;;;1.20;;
10154;SDS011;5118;48.570;7.916;2023-03-25T09:20:08;2.33;;;1.37;;
10154;SDS011;5118;48.570;7.916;2023-03-25T09:22:39;2.47;;;1.27;;
10154;SDS011;5118;48.570;7.916;2023-03-25T09:25:08;2.03;;;1.07;;
10154;SDS011;5118;48.570;7.916;2023-03-25T09:27:37;1.63;;;1.43;;
10154;SDS011;5118;48.570;7.916;2023-03-25T09:30:05;2.47;;;1.10;;
10154;SDS011;5118;48.570;7.916;2023-03-25T09:32:35;1.70;;;1.10;;
10154;SDS011;5118;48.570;7.916;2023-03-25T09:35:03;2.43;;;1.13;;
10154;SDS011;5118;48.570;7.916;2023-03-25T09:37:33;2.77;;;1.10;;
10154;SDS011;5118;48.570;7.916;2023-03-25T09:40:02;1.83;;;1.20;;
10154;SDS011;5118;48.570;7.916;2023-03-25T09:42:44;3.17;;;1.27;;
10154;SDS011;5118;48.570;7.916;2023-03-25T09:45:27;3.40;;;1.30;;
10154;SDS011;5118;48.570;7.916;2023-03-25T09:48:00;2.70;;;1.70;;
10154;SDS011;5118;48.570;7.916;2023-03-25T09:50:33;3.33;;;1.43;;
10154;SDS011;5118;48.570;7.916;2023-03-25T09:53:05;3.53;;;1.43;;
10154;SDS011;5118;48.570;7.916;2023-03-25T09:55:40;2.60;;;1.60;;
10154;SDS011;5118;48.570;7.916;2023-03-25T09:58:18;4.33;;;1.70;;
10154;SDS011;5118;48.570;7.916;2023-03-25T10:00:54;1.90;;;1.23;;
10154;SDS011;5118;48.570;7.916;2023-03-25T10:03:28;2.87;;;1.23;;
10154;SDS011;5118;48.570;7.916;2023-03-25T10:06:11;2.80;;;1.50;;
10154;SDS011;5118;48.570;7.916;2023-03-25T10:08:54;2.13;;;1.30;;
10154;SDS011;5118;48.570;7.916;2023-03-25T10:11:32;7.27;;;3.00;;
10154;SDS011;5118;48.570;7.916;2023-03-25T10:14:08;3.53;;;2.40;;
10154;SDS011;5118;48.570;7.916;2023-03-25T10:16:42;2.03;;;1.57;;
10154;SDS011;5118;48.570;7.916;2023-03-25T10:19:33;3.37;;;1.80;;
10154;SDS011;5118;48.570;7.916;2023-03-25T10:22:11;3.07;;;2.07;;
10154;SDS011;5118;48.570;7.916;2023-03-25T10:24:45;3.57;;;2.00;;
10154;SDS011;5118;48.570;7.916;2023-03-25T10:27:17;2.07;;;1.10;;
10154;SDS011;5118;48.570;7.916;2023-03-25T10:29:50;2.17;;;1.17;;
10154;SDS011;5118;48.570;7.916;2023-03-25T10:32:24;6.33;;;3.27;;
10154;SDS011;5118;48.570;7.916;2023-03-25T10:34:58;4.87;;;3.20;;
10154;SDS011;5118;48.570;7.916;2023-03-25T10:37:32;4.20;;;2.93;;
10154;SDS011;5118;48.570;7.916;2023-03-25T10:40:11;4.20;;;2.23;;
10154;SDS011;5118;48.570;7.916;2023-03-25T10:42:44;5.53;;;2.90;;
10154;SDS011;5118;48.570;7.916;2023-03-25T10:45:22;2.27;;;1.50;;
10154;SDS011;5118;48.570;7.916;2023-03-25T10:47:53;1.67;;;1.10;;
10154;SDS011;5118;48.570;7.916;2023-03-25T10:50:28;2.80;;;1.37;;
10154;SDS011;5118;48.570;7.916;2023-03-25T10:52:57;1.63;;;1.30;;
10154;SDS011;5118;48.570;7.916;2023-03-25T10:55:29;5.00;;;2.07;;
10154;SDS011;5118;48.570;7.916;2023-03-25T10:58:01;2.17;;;1.10;;
10154;SDS011;5118;48.570;7.916;2023-03-25T11:00:31;2.27;;;1.20;;
10154;SDS011;5118;48.570;7.916;2023-03-25T11:02:59;2.80;;;1.17;;
10154;SDS011;5118;48.570;7.916;2023-03-25T11:05:30;3.33;;;1.60;;
10154;SDS011;5118;48.570;7.916;2023-03-25T11:08:01;2.90;;;1.47;;
10154;SDS011;5118;48.570;7.916;2023-03-25T11:10:51;4.17;;;1.60;;
10154;SDS011;5118;48.570;7.916;2023-03-25T11:13:23;4.40;;;1.73;;
10154;SDS011;5118;48.570;7.916;2023-03-25T11:15:53;1.30;;;1.20;;
10154;SDS011;5118;48.570;7.916;2023-03-25T11:18:25;3.30;;;1.43;;
10154;SDS011;5118;48.570;7.916;2023-03-25T11:20:55;5.30;;;2.47;;
10154;SDS011;5118;48.570;7.916;2023-03-25T11:23:29;2.97;;;1.73;;
10154;SDS011;5118;48.570;7.916;2023-03-25T11:26:03;3.07;;;1.90;;
10154;SDS011;5118;48.570;7.916;2023-03-25T11:28:35;2.23;;;1.80;;
10154;SDS011;5118;48.570;7.916;2023-03-25T11:31:07;3.73;;;1.50;;
10154;SDS011;5118;48.570;7.916;2023-03-25T11:33:39;3.03;;;1.30;;
10154;SDS011;5118;48.570;7.916;2023-03-25T11:38:56;1.97;;;0.90;;
10154;SDS011;5118;48.570;7.916;2023-03-25T11:41:28;3.23;;;1.43;;
10154;SDS011;5118;48.570;7.916;2023-03-25T11:44:02;3.00;;;1.20;;
10154;SDS011;5118;48.570;7.916;2023-03-25T11:46:32;3.20;;;1.20;;
10154;SDS011;5118;48.570;7.916;2023-03-25T11:49:08;3.17;;;1.30;;
10154;SDS011;5118;48.570;7.916;2023-03-25T11:51:38;3.53;;;1.47;;
10154;SDS011;5118;48.570;7.916;2023-03-25T11:54:07;2.50;;;1.40;;
10154;SDS011;5118;48.570;7.916;2023-03-25T11:56:40;1.30;;;1.00;;
10154;SDS011;5118;48.570;7.916;2023-03-25T11:59:17;1.50;;;1.00;;
10154;SDS011;5118;48.570;7.916;2023-03-25T12:01:50;3.50;;;1.13;;
10154;SDS011;5118;48.570;7.916;2023-03-25T12:04:26;3.27;;;2.20;;
10154;SDS011;5118;48.570;7.916;2023-03-25T12:06:56;3.83;;;1.50;;
10154;SDS011;5118;48.570;7.916;2023-03-25T12:09:26;2.37;;;1.60;;
10154;SDS011;5118;48.570;7.916;2023-03-25T12:12:19;4.50;;;2.73;;
10154;SDS011;5118;48.570;7.916;2023-03-25T12:15:00;5.60;;;1.67;;
10154;SDS011;5118;48.570;7.916;2023-03-25T12:17:44;3.70;;;1.50;;
10154;SDS011;5118;48.570;7.916;2023-03-25T12:20:24;2.10;;;1.17;;
10154;SDS011;5118;48.570;7.916;2023-03-25T12:23:01;3.70;;;1.47;;
10154;SDS011;5118;48.570;7.916;2023-03-25T12:25:40;3.20;;;1.50;;
10154;SDS011;5118;48.570;7.916;2023-03-25T12:28:27;3.73;;;1.60;;
10154;SDS011;5118;48.570;7.916;2023-03-25T12:31:06;2.60;;;0.97;;
10154;SDS011;5118;48.570;7.916;2023-03-25T12:33:46;2.55;;;1.67;;
10154;SDS011;5118;48.570;7.916;2023-03-25T12:36:27;3.40;;;1.48;;
10154;SDS011;5118;48.570;7.916;2023-03-25T12:39:20;2.10;;;1.00;;
10154;SDS011;5118;48.570;7.916;2023-03-25T12:42:11;2.50;;;1.20;;
10154;SDS011;5118;48.570;7.916;2023-03-25T12:44:53;1.83;;;1.00;;
10154;SDS011;5118;48.570;7.916;2023-03-25T12:47:33;2.72;;;1.30;;
10154;SDS011;5118;48.570;7.916;2023-03-25T12:50:15;3.78;;;1.40;;
10154;SDS011;5118;48.570;7.916;2023-03-25T12:52:51;2.58;;;1.20;;
10154;SDS011;5118;48.570;7.916;2023-03-25T12:55:27;1.85;;;1.20;;
10154;SDS011;5118;48.570;7.916;2023-03-25T12:58:19;2.90;;;1.30;;
10154;SDS011;5118;48.570;7.916;2023-03-25T13:01:07;2.58;;;0.98;;
10154;SDS011;5118;48.570;7.916;2023-03-25T13:03:43;3.45;;;1.30;;
10154;SDS011;5118;48.570;7.916;2023-03-25T13:06:19;2.88;;;1.20;;
10154;SDS011;5118;48.570;7.916;2023-03-25T13:08:56;2.33;;;1.13;;
10154;SDS011;5118;48.570;7.916;2023-03-25T13:11:30;3.10;;;2.10;;
10154;SDS011;5118;48.570;7.916;2023-03-25T13:14:03;2.88;;;1.45;;
10154;SDS011;5118;48.570;7.916;2023-03-25T13:16:37;4.43;;;1.95;;
10154;SDS011;5118;48.570;7.916;2023-03-25T13:19:09;2.75;;;1.50;;
10154;SDS011;5118;48.570;7.916;2023-03-25T13:21:41;3.05;;;2.15;;
10154;SDS011;5118;48.570;7.916;2023-03-25T13:24:13;4.15;;;2.40;;
10154;SDS011;5118;48.570;7.916;2023-03-25T13:26:46;2.88;;;1.40;;
10154;SDS011;5118;48.570;7.916;2023-03-25T13:29:21;1.95;;;1.10;;
10154;SDS011;5118;48.570;7.916;2023-03-25T13:31:56;2.58;;;1.23;;
10154;SDS011;5118;48.570;7.916;2023-03-25T13:34:29;2.38;;;1.27;;
10154;SDS011;5118;48.570;7.916;2023-03-25T13:37:03;4.13;;;1.33;;
10154;SDS011;5118;48.570;7.916;2023-03-25T13:39:45;1.90;;;1.30;;
10154;SDS011;5118;48.570;7.916;2023-03-25T13:42:20;2.10;;;1.10;;
10154;SDS011;5118;48.570;7.916;2023-03-25T13:44:52;2.78;;;1.73;;
10154;SDS011;5118;48.570;7.916;2023-03-25T13:47:24;2.05;;;1.27;;
10154;SDS011;5118;48.570;7.916;2023-03-25T13:49:59;2.65;;;1.30;;
10154;SDS011;5118;48.570;7.916;2023-03-25T13:52:31;2.42;;;1.80;;
10154;SDS011;5118;48.570;7.916;2023-03-25T13:55:05;2.88;;;1.58;;
10154;SDS011;5118;48.570;7.916;2023-03-25T14:00:49;2.90;;;1.38;;
10154;SDS011;5118;48.570;7.916;2023-03-25T14:03:51;2.10;;;1.20;;
10154;SDS011;5118;48.570;7.916;2023-03-25T14:06:55;1.80;;;0.82;;
10154;SDS011;5118;48.570;7.916;2023-03-25T14:09:59;4.55;;;1.20;;
10154;SDS011;5118;48.570;7.916;2023-03-25T14:12:51;1.23;;;0.77;;
10154;SDS011;5118;48.570;7.916;2023-03-25T14:15:22;1.52;;;0.95;;
10154;SDS011;5118;48.570;7.916;2023-03-25T14:17:55;3.10;;;1.30;;
10154;SDS011;5118;48.570;7.916;2023-03-25T14:20:27;2.45;;;1.10;;
10154;SDS011;5118;48.570;7.916;2023-03-25T14:23:02;2.55;;;1.58;;
10154;SDS011;5118;48.570;7.916;2023-03-25T14:25:33;2.60;;;1.30;;
10154;SDS011;5118;48.570;7.916;2023-03-25T14:28:06;2.03;;;1.20;;
10154;SDS011;5118;48.570;7.916;2023-03-25T14:30:38;2.85;;;1.38;;
10154;SDS011;5118;48.570;7.916;2023-03-25T14:33:08;3.03;;;1.48;;
10154;SDS011;5118;48.570;7.916;2023-03-25T14:35:49;2.13;;;1.25;;
10154;SDS011;5118;48.570;7.916;2023-03-25T14:44:23;3.53;;;1.20;;
10154;SDS011;5118;48.570;7.916;2023-03-25T14:46:59;2.25;;;1.38;;
10154;SDS011;5118;48.570;7.916;2023-03-25T14:49:47;2.20;;;1.10;;
10154;SDS011;5118;48.570;7.916;2023-03-25T14:52:24;2.40;;;1.15;;
10154;SDS011;5118;48.570;7.916;2023-03-25T14:54:57;1.55;;;1.40;;
10154;SDS011;5118;48.570;7.916;2023-03-25T14:57:28;2.00;;;1.42;;
10154;SDS011;5118;48.570;7.916;2023-03-25T15:00:05;2.30;;;1.23;;
10154;SDS011;5118;48.570;7.916;2023-03-25T15:02:39;1.45;;;1.02;;
10154;SDS011;5118;48.570;7.916;2023-03-25T15:05:13;2.10;;;1.30;;
10154;SDS011;5118;48.570;7.916;2023-03-25T15:07:47;2.47;;;1.60;;
10154;SDS011;5118;48.570;7.916;2023-03-25T15:10:22;2.67;;;1.60;;
10154;SDS011;5118;48.570;7.916;2023-03-25T15:12:55;3.35;;;1.70;;
10154;SDS011;5118;48.570;7.916;2023-03-25T15:15:31;3.13;;;1.75;;
10154;SDS011;5118;48.570;7.916;2023-03-25T15:21:22;4.38;;;1.60;;
10154;SDS011;5118;48.570;7.916;2023-03-25T15:24:02;2.42;;;1.33;;
10154;SDS011;5118;48.570;7.916;2023-03-25T15:26:34;2.83;;;1.40;;
10154;SDS011;5118;48.570;7.916;2023-03-25T15:32:00;2.72;;;1.58;;
10154;SDS011;5118;48.570;7.916;2023-03-25T15:34:41;3.22;;;1.35;;
10154;SDS011;5118;48.570;7.916;2023-03-25T15:37:49;3.95;;;1.42;;
10154;SDS011;5118;48.570;7.916;2023-03-25T15:40:44;1.90;;;1.20;;
10154;SDS011;5118;48.570;7.916;2023-03-25T15:46:27;2.60;;;1.48;;
10154;SDS011;5118;48.570;7.916;2023-03-25T15:49:19;3.10;;;1.42;;
10154;SDS011;5118;48.570;7.916;2023-03-25T15:52:04;3.10;;;1.10;;
10154;SDS011;5118;48.570;7.916;2023-03-25T15:54:42;2.58;;;1.10;;
10154;SDS011;5118;48.570;7.916;2023-03-25T15:57:15;2.85;;;1.40;;
10154;SDS011;5118;48.570;7.916;2023-03-25T15:59:50;2.92;;;1.20;;
10154;SDS011;5118;48.570;7.916;2023-03-25T16:02:27;3.42;;;1.25;;
10154;SDS011;5118;48.570;7.916;2023-03-25T16:04:59;1.92;;;1.17;;
10154;SDS011;5118;48.570;7.916;2023-03-25T16:07:29;1.97;;;1.30;;
10154;SDS011;5118;48.570;7.916;2023-03-25T16:10:04;3.63;;;1.73;;